Saint Elmo, Alabama
Current Conditions -  °F | °C
As of 3:56 AM on Thursday 23 Oct 2014 (Local Time) from KMOB Reporting Station
Clear Clear  
Wind Chill:   Ceiling: Unl
Heat Index:   Visibility: 10mi
Dew Point:   Wind: 6mph
Humidity: 86%   Direction: 10°N
Pressure: 30.08"   Gusts: NA
Location:  30.5°N, 88.25°W
Report Text: KMOB 230856Z AUTO 01005KT 10SM CLR 09/07 A3008 RMK AO2 SLP183 T00940072 55001
Loading
Personal Weather Stations






























Interactive Weather Map
Tropical Storm Tracking
New forecast layout! Learn more

10-Day Weather Forecast

Advertisements
Track Severe Weather on mobile